Time;durP1;ratioP1;P1;durP2;ratioP2;P2;SDS_P1;SDS_P2;PMS_P1;PMS_P2;Temp;Humidity;BMP_temperature;BMP_pressure;BME280_temperature;BME280_humidity;BME280_pressure;Samples;Min_cycle;Max_cycle;Signal;HPM_P1;HPM_P2
2023/02/07 00:00:50;;;;;;;;;;;;;;;18.16;55.79;103563.66;2247043;78;22297;-73
2023/02/07 00:03:51;;;;;;;;;;;;;;;18.12;55.94;103567.05;2246177;78;50271;-71
2023/02/07 00:06:53;;;;;;;;;;;;;;;18.13;56.03;103571.43;2267295;78;50726;-73
2023/02/07 00:09:56;;;;;;;;;;;;;;;18.17;55.95;103577.45;2282812;77;51250;-72
2023/02/07 00:12:57;;;;;;;;;;;;;;;18.22;55.85;103581.52;2299359;77;50305;-72
2023/02/07 00:15:59;;;;;;;;;;;;;;;18.28;55.75;103580.21;2299494;77;50238;-72
2023/02/07 00:19:01;;;;;;;;;;;;;;;18.34;55.67;103577.57;2299492;77;49717;-72
2023/02/07 00:22:02;;;;;;;;;;;;;;;18.34;55.63;103563.70;2277440;77;51679;-71
2023/02/07 00:25:04;;;;;;;;;;;;;;;18.37;55.62;103567.50;2299504;77;51564;-72
2023/02/07 00:28:06;;;;;;;;;;;;;;;18.38;55.63;103561.65;2299426;77;50264;-72
2023/02/07 00:31:09;;;;;;;;;;;;;;;18.42;55.60;103557.30;2303491;77;50641;-72
2023/02/07 00:34:10;;;;;;;;;;;;;;;18.41;55.60;103554.23;2299356;77;51587;-71
2023/02/07 00:37:12;;;;;;;;;;;;;;;18.38;55.67;103550.92;2275879;77;51660;-73
2023/02/07 00:40:14;;;;;;;;;;;;;;;18.33;55.79;103557.95;2267197;77;50638;-71
2023/02/07 00:43:15;;;;;;;;;;;;;;;18.30;55.90;103561.35;2267075;78;51584;-71
2023/02/07 00:46:17;;;;;;;;;;;;;;;18.25;55.97;103563.02;2267328;78;51552;-73
2023/02/07 00:49:18;;;;;;;;;;;;;;;18.22;55.98;103557.39;2245981;78;52386;-71
2023/02/07 00:52:20;;;;;;;;;;;;;;;18.18;56.02;103560.39;2267157;78;51522;-72
2023/02/07 00:55:21;;;;;;;;;;;;;;;18.13;56.25;103555.35;2267354;78;51408;-71
2023/02/07 00:58:23;;;;;;;;;;;;;;;18.09;56.46;103553.02;2266891;78;51429;-72
2023/02/07 01:01:26;;;;;;;;;;;;;;;18.10;56.47;103553.38;2245503;78;49603;-73
2023/02/07 01:04:27;;;;;;;;;;;;;;;18.14;56.37;103558.91;2245909;78;50327;-71
2023/02/07 01:07:29;;;;;;;;;;;;;;;18.22;56.24;103563.23;2266710;78;50650;-72
2023/02/07 01:10:31;;;;;;;;;;;;;;;18.28;56.14;103557.42;2258257;77;51719;-71
2023/02/07 01:13:33;;;;;;;;;;;;;;;18.32;56.06;103560.77;2266893;77;51665;-73
2023/02/07 01:16:35;;;;;;;;;;;;;;;18.34;55.97;103561.03;2305897;77;51508;-73
2023/02/07 01:19:37;;;;;;;;;;;;;;;18.38;56.03;103567.02;2305920;77;52151;-71
2023/02/07 01:22:38;;;;;;;;;;;;;;;18.39;55.94;103560.17;2270233;78;51730;-72
2023/02/07 01:25:40;;;;;;;;;;;;;;;18.41;55.93;103562.77;2259996;78;52631;-72
2023/02/07 01:28:42;;;;;;;;;;;;;;;18.37;56.02;103554.55;2246381;78;50314;-71
2023/02/07 01:31:44;;;;;;;;;;;;;;;18.34;56.04;103557.47;2246434;78;51538;-71
2023/02/07 01:34:45;;;;;;;;;;;;;;;18.31;56.10;103548.31;2267626;78;50276;-72
2023/02/07 01:37:47;;;;;;;;;;;;;;;18.27;56.11;103545.85;2246453;78;49602;-72
2023/02/07 01:40:48;;;;;;;;;;;;;;;18.24;56.16;103543.89;2246357;78;50002;-73
2023/02/07 01:43:55;;;;;;;;;;;;;;;18.18;56.21;103535.78;2267270;78;50730;-71
2023/02/07 01:46:56;;;;;;;;;;;;;;;18.15;56.22;103536.50;2290490;77;51573;-71
2023/02/07 01:49:58;;;;;;;;;;;;;;;18.07;56.49;103538.38;2258939;77;52522;-71
2023/02/07 01:53:00;;;;;;;;;;;;;;;18.04;56.62;103541.28;2277362;77;51639;-72
2023/02/07 01:56:03;;;;;;;;;;;;;;;18.06;56.59;103548.73;2267344;78;51437;-72
2023/02/07 01:59:05;;;;;;;;;;;;;;;18.11;56.50;103543.91;2267459;78;51581;-72
2023/02/07 02:02:07;;;;;;;;;;;;;;;18.16;56.37;103544.44;2267081;78;51633;-71
2023/02/07 02:05:08;;;;;;;;;;;;;;;18.23;56.30;103539.48;2245019;78;51474;-73
2023/02/07 02:08:10;;;;;;;;;;;;;;;18.30;56.19;103542.59;2267320;78;51488;-71
2023/02/07 02:11:13;;;;;;;;;;;;;;;18.33;56.15;103546.38;2267407;78;51470;-71
2023/02/07 02:14:22;;;;;;;;;;;;;;;18.35;56.10;103539.94;2270942;78;52423;-71
2023/02/07 02:17:42;;;;;;;;;;;;;;;18.38;56.04;103527.65;2267507;78;50272;-70
2023/02/07 02:20:58;;;;;;;;;;;;;;;18.36;56.11;103525.55;2267422;78;50771;-71
2023/02/07 02:24:05;;;;;;;;;;;;;;;18.34;56.16;103528.86;2264835;78;50397;-72
2023/02/07 02:27:23;;;;;;;;;;;;;;;18.30;56.22;103528.70;2238629;79;50877;-72
2023/02/07 02:30:26;;;;;;;;;;;;;;;18.26;56.30;103533.89;2249765;79;50784;-72
2023/02/07 02:33:29;;;;;;;;;;;;;;;18.23;56.38;103528.76;2244576;79;50461;-72
2023/02/07 02:36:36;;;;;;;;;;;;;;;18.16;56.52;103520.78;2249838;77;50826;-72
2023/02/07 02:39:39;;;;;;;;;;;;;;;18.11;56.61;103519.80;2239167;79;51728;-72
2023/02/07 02:42:41;;;;;;;;;;;;;;;18.04;56.82;103519.85;2249756;79;50691;-73
2023/02/07 02:45:44;;;;;;;;;;;;;;;18.03;56.92;103517.66;2249981;79;50390;-72
2023/02/07 02:48:46;;;;;;;;;;;;;;;18.05;56.94;103515.70;2249949;79;51624;-73
2023/02/07 02:51:49;;;;;;;;;;;;;;;18.10;56.83;103507.34;2255652;77;52969;-73
2023/02/07 02:54:51;;;;;;;;;;;;;;;18.17;56.67;103510.45;2279946;77;51541;-73
2023/02/07 02:58:11;;;;;;;;;;;;;;;18.22;56.55;103505.62;2267317;78;51521;-72
2023/02/07 03:01:20;;;;;;;;;;;;;;;18.27;56.40;103500.78;2267447;78;50698;-72
2023/02/07 03:04:35;;;;;;;;;;;;;;;18.29;56.31;103512.25;2245949;78;51246;-73
2023/02/07 03:07:55;;;;;;;;;;;;;;;18.32;56.25;103503.98;2267220;78;49992;-72
2023/02/07 03:11:10;;;;;;;;;;;;;;;18.35;56.16;103505.58;2267475;78;50699;-72
2023/02/07 03:14:13;;;;;;;;;;;;;;;18.38;56.07;103502.18;2267143;78;50480;-72
2023/02/07 03:17:22;;;;;;;;;;;;;;;18.37;56.08;103490.22;2246097;78;51239;-73
2023/02/07 03:20:31;;;;;;;;;;;;;;;18.32;56.16;103491.92;2267416;78;51514;-72
2023/02/07 03:23:32;;;;;;;;;;;;;;;18.28;56.21;103493.09;2277876;77;51516;-71
2023/02/07 03:26:34;;;;;;;;;;;;;;;18.25;56.30;103486.14;2299218;77;51475;-71
2023/02/07 03:29:36;;;;;;;;;;;;;;;18.20;56.37;103474.05;2303400;77;51826;-71
2023/02/07 03:32:38;;;;;;;;;;;;;;;18.17;56.39;103478.30;2303363;77;49774;-72
2023/02/07 03:35:50;;;;;;;;;;;;;;;18.12;56.49;103472.41;2299625;77;51479;-72
2023/02/07 03:38:52;;;;;;;;;;;;;;;18.04;56.72;103475.16;2299623;77;51549;-71
2023/02/07 03:41:55;;;;;;;;;;;;;;;17.99;56.87;103484.00;2299395;77;50652;-72
2023/02/07 03:44:56;;;;;;;;;;;;;;;18.01;56.90;103482.08;2299446;77;50366;-71
2023/02/07 03:47:58;;;;;;;;;;;;;;;18.07;56.78;103491.49;2299432;77;51468;-71
2023/02/07 03:51:00;;;;;;;;;;;;;;;18.14;56.59;103483.88;2297336;77;50290;-73
2023/02/07 03:54:01;;;;;;;;;;;;;;;18.19;56.42;103486.59;2245491;77;51258;-72
2023/02/07 03:57:03;;;;;;;;;;;;;;;18.26;56.30;103491.00;2246089;78;50304;-71
2023/02/07 04:00:05;;;;;;;;;;;;;;;18.28;56.25;103492.61;2246374;78;51530;-71
2023/02/07 04:03:06;;;;;;;;;;;;;;;18.33;56.15;103482.89;2267057;78;50299;-72
2023/02/07 04:06:08;;;;;;;;;;;;;;;18.34;56.13;103479.73;2221867;78;50153;-73
2023/02/07 04:09:10;;;;;;;;;;;;;;;18.32;56.12;103489.23;2259562;78;50644;-70
2023/02/07 04:12:11;;;;;;;;;;;;;;;18.31;56.17;103489.34;2248092;78;50738;-71
2023/02/07 04:15:13;;;;;;;;;;;;;;;18.27;56.19;103492.73;2245521;79;51463;-71
2023/02/07 04:18:14;;;;;;;;;;;;;;;18.23;56.21;103496.59;2258622;78;52351;-71
2023/02/07 04:21:16;;;;;;;;;;;;;;;18.19;56.23;103493.78;2258784;78;51472;-71
2023/02/07 04:24:17;;;;;;;;;;;;;;;18.14;56.28;103500.81;2245486;79;50626;-73
2023/02/07 04:27:19;;;;;;;;;;;;;;;18.10;56.33;103494.44;2258643;78;50321;-71
2023/02/07 04:30:21;;;;;;;;;;;;;;;18.02;56.57;103502.53;2258479;78;51215;-72
2023/02/07 04:33:22;;;;;;;;;;;;;;;17.97;56.75;103499.33;2258434;78;50741;-72
2023/02/07 04:36:24;;;;;;;;;;;;;;;17.99;56.79;103498.73;2245565;79;50133;-71
2023/02/07 04:39:25;;;;;;;;;;;;;;;18.03;56.70;103501.59;2278337;77;50262;-71
2023/02/07 04:42:27;;;;;;;;;;;;;;;18.07;56.59;103494.17;2268485;77;51645;-71
2023/02/07 04:45:29;;;;;;;;;;;;;;;18.14;56.45;103494.59;2267439;78;51534;-73
2023/02/07 04:48:30;;;;;;;;;;;;;;;18.17;56.37;103490.35;2246250;78;51433;-71
2023/02/07 04:51:32;;;;;;;;;;;;;;;18.23;56.23;103491.23;2267411;78;50629;-72
2023/02/07 04:54:33;;;;;;;;;;;;;;;18.27;56.17;103495.42;2245953;78;52474;-72
2023/02/07 04:57:35;;;;;;;;;;;;;;;18.30;56.07;103487.15;2267249;78;51401;-70
2023/02/07 05:00:36;;;;;;;;;;;;;;;18.33;56.00;103497.64;2267305;78;51479;-71
2023/02/07 05:03:38;;;;;;;;;;;;;;;18.33;55.99;103498.13;2246196;78;50330;-72
2023/02/07 05:06:40;;;;;;;;;;;;;;;18.30;56.02;103508.59;2267299;78;50274;-71
2023/02/07 05:09:41;;;;;;;;;;;;;;;18.28;56.04;103501.14;2255945;77;51466;-72
2023/02/07 05:12:43;;;;;;;;;;;;;;;18.25;56.05;103490.16;2267078;78;50249;-71
2023/02/07 05:15:45;;;;;;;;;;;;;;;18.20;56.10;103502.19;2267255;78;50899;-71
2023/02/07 05:18:46;;;;;;;;;;;;;;;18.17;56.13;103506.43;2244768;78;52516;-71
2023/02/07 05:21:48;;;;;;;;;;;;;;;18.12;56.21;103508.09;2246216;78;50296;-72
2023/02/07 05:24:50;;;;;;;;;;;;;;;18.06;56.31;103512.08;2267175;78;50386;-73
2023/02/07 05:27:52;;;;;;;;;;;;;;;17.98;56.53;103513.11;2267233;78;51471;-73
2023/02/07 05:30:55;;;;;;;;;;;;;;;17.95;56.65;103506.61;2246276;78;50584;-72
2023/02/07 05:33:56;;;;;;;;;;;;;;;17.97;56.69;103503.34;2267513;78;50443;-73
2023/02/07 05:36:58;;;;;;;;;;;;;;;18.02;56.69;103503.88;2246847;78;51328;-73
2023/02/07 05:39:59;;;;;;;;;;;;;;;18.10;56.39;103503.81;2256218;78;50833;-72
2023/02/07 05:43:01;;;;;;;;;;;;;;;18.13;56.20;103498.23;2246467;78;49627;-73
2023/02/07 05:46:03;;;;;;;;;;;;;;;18.19;56.02;103512.55;2268827;77;51503;-74
2023/02/07 05:49:04;;;;;;;;;;;;;;;18.24;55.89;103511.73;2247700;77;51502;-72
2023/02/07 05:52:06;;;;;;;;;;;;;;;18.22;55.84;103513.66;2292537;77;51543;-73
2023/02/07 05:55:08;;;;;;;;;;;;;;;18.18;55.88;103509.47;2235170;78;51188;-73
2023/02/07 05:58:10;;;;;;;;;;;;;;;18.14;55.90;103510.19;2267198;78;50678;-74
2023/02/07 06:01:11;;;;;;;;;;;;;;;18.12;55.90;103517.97;2246192;78;51497;-73
2023/02/07 06:04:13;;;;;;;;;;;;;;;18.10;55.89;103519.89;2246041;78;51413;-73
2023/02/07 06:07:14;;;;;;;;;;;;;;;18.06;55.92;103529.49;2247555;77;51173;-74
2023/02/07 06:10:16;;;;;;;;;;;;;;;18.03;55.92;103535.53;2281922;77;50251;-73
2023/02/07 06:13:17;;;;;;;;;;;;;;;17.95;56.08;103534.73;2267013;78;50207;-74
2023/02/07 06:16:19;;;;;;;;;;;;;;;17.93;56.23;103530.45;2246224;78;50135;-74
2023/02/07 06:19:21;;;;;;;;;;;;;;;17.92;56.13;103529.60;2221970;78;49635;-73
2023/02/07 06:22:22;;;;;;;;;;;;;;;17.97;56.06;103533.30;2246134;78;50730;-73
2023/02/07 06:25:24;;;;;;;;;;;;;;;18.03;56.25;103543.57;2267483;78;50673;-74
2023/02/07 06:28:25;;;;;;;;;;;;;;;18.10;56.31;103538.65;2245890;78;52442;-73
2023/02/07 06:31:27;;;;;;;;;;;;;;;18.12;56.32;103550.97;2221995;78;53298;-73
2023/02/07 06:34:28;;;;;;;;;;;;;;;18.15;56.24;103548.55;2246088;78;51487;-74
2023/02/07 06:37:30;;;;;;;;;;;;;;;18.18;56.17;103548.33;2267191;78;50167;-72
2023/02/07 06:40:33;;;;;;;;;;;;;;;18.24;56.11;103547.91;2288151;77;50282;-72
2023/02/07 06:43:34;;;;;;;;;;;;;;;18.23;56.08;103548.86;2299093;77;50272;-73
2023/02/07 06:46:36;;;;;;;;;;;;;;;18.20;56.13;103546.41;2303502;77;50767;-73
2023/02/07 06:49:38;;;;;;;;;;;;;;;18.18;56.18;103553.69;2303417;77;51529;-73
2023/02/07 06:52:39;;;;;;;;;;;;;;;18.15;56.24;103556.59;2302844;77;51504;-72
2023/02/07 06:55:41;;;;;;;;;;;;;;;18.11;56.37;103554.63;2299386;77;52390;-73
2023/02/07 06:58:44;;;;;;;;;;;;;;;18.09;56.68;103556.55;2264602;78;51465;-73
2023/02/07 07:01:46;;;;;;;;;;;;;;;18.06;56.71;103559.45;2251184;78;22525;-73
2023/02/07 07:04:49;;;;;;;;;;;;;;;18.03;56.83;103555.63;2253285;77;50634;-73
2023/02/07 07:07:50;;;;;;;;;;;;;;;18.01;57.00;103554.42;2249823;77;52718;-74
2023/02/07 07:10:54;;;;;;;;;;;;;;;18.05;57.46;103559.91;2256955;78;53715;-73
2023/02/07 07:13:55;;;;;;;;;;;;;;;18.12;57.38;103553.65;2274891;77;22236;-74
2023/02/07 07:16:57;;;;;;;;;;;;;;;18.19;57.26;103562.13;2263275;77;50312;-74
2023/02/07 07:19:58;;;;;;;;;;;;;;;18.22;57.17;103550.69;2246843;78;50232;-73
2023/02/07 07:23:00;;;;;;;;;;;;;;;18.29;57.00;103552.45;2246541;78;50248;-72
2023/02/07 07:26:02;;;;;;;;;;;;;;;18.34;56.85;103547.63;2267263;77;50631;-74
2023/02/07 07:29:03;;;;;;;;;;;;;;;18.35;56.77;103535.92;2246416;78;53309;-73
2023/02/07 07:32:05;;;;;;;;;;;;;;;18.33;56.58;103526.28;2221982;78;49578;-73
2023/02/07 07:35:07;;;;;;;;;;;;;;;18.31;56.57;103528.20;2246366;78;50216;-74
2023/02/07 07:38:08;;;;;;;;;;;;;;;18.30;56.58;103538.08;2273239;77;50696;-73
2023/02/07 07:41:10;;;;;;;;;;;;;;;18.27;56.58;103533.80;2291051;77;50323;-73
2023/02/07 07:44:11;;;;;;;;;;;;;;;18.22;56.59;103533.76;2277545;77;51506;-74
2023/02/07 07:47:13;;;;;;;;;;;;;;;18.21;56.55;103534.70;2303570;77;50344;-74
2023/02/07 07:50:15;;;;;;;;;;;;;;;18.14;56.58;103534.31;2303651;77;50366;-73
2023/02/07 07:53:17;;;;;;;;;;;;;;;18.15;56.59;103540.52;2303417;77;50301;-73
2023/02/07 07:56:18;;;;;;;;;;;;;;;18.15;56.58;103543.20;2303546;77;52477;-73
2023/02/07 07:59:20;;;;;;;;;;;;;;;18.19;56.50;103530.81;2277578;77;52604;-73
2023/02/07 08:02:23;;;;;;;;;;;;;;;18.26;56.38;103551.31;2299209;77;52038;-73
2023/02/07 08:05:24;;;;;;;;;;;;;;;18.30;56.27;103547.95;2299500;77;50294;-73
2023/02/07 08:08:27;;;;;;;;;;;;;;;18.34;56.12;103555.66;2295972;77;51661;-73
2023/02/07 08:11:29;;;;;;;;;;;;;;;18.37;56.02;103557.23;2260965;77;51498;-73
2023/02/07 08:14:30;;;;;;;;;;;;;;;18.42;55.87;103567.14;2246128;78;51395;-73
2023/02/07 08:17:32;;;;;;;;;;;;;;;18.45;55.78;103568.29;2267386;77;51411;-73
2023/02/07 08:20:34;;;;;;;;;;;;;;;18.46;55.68;103564.14;2246260;78;51136;-74
2023/02/07 08:23:35;;;;;;;;;;;;;;;18.45;55.63;103561.59;2246161;78;51398;-74
2023/02/07 08:26:37;;;;;;;;;;;;;;;18.41;55.66;103560.08;2267461;77;50401;-73
2023/02/07 08:29:39;;;;;;;;;;;;;;;18.36;55.69;103552.36;2267305;78;50307;-73
2023/02/07 08:32:41;;;;;;;;;;;;;;;18.32;55.73;103561.61;2245975;78;51071;-73
2023/02/07 08:35:42;;;;;;;;;;;;;;;18.26;55.79;103564.26;2246303;78;50432;-72
2023/02/07 08:38:44;;;;;;;;;;;;;;;18.20;55.89;103555.78;2272872;77;51426;-73
2023/02/07 08:41:45;;;;;;;;;;;;;;;18.18;55.91;103563.07;2276026;77;51410;-72
2023/02/07 08:44:47;;;;;;;;;;;;;;;18.22;55.87;103549.84;2245903;78;51236;-73
2023/02/07 08:47:49;;;;;;;;;;;;;;;18.19;55.88;103546.89;2246290;78;51490;-72
2023/02/07 08:50:50;;;;;;;;;;;;;;;18.20;55.88;103549.08;2246221;78;50659;-72
2023/02/07 08:53:52;;;;;;;;;;;;;;;18.28;55.75;103545.37;2246049;78;51484;-72
2023/02/07 08:56:54;;;;;;;;;;;;;;;18.29;55.69;103551.12;2246148;78;51022;-72
2023/02/07 08:59:56;;;;;;;;;;;;;;;18.36;55.52;103555.05;2246210;78;51512;-72
2023/02/07 09:02:57;;;;;;;;;;;;;;;18.38;55.49;103554.95;2245983;78;50629;-73
2023/02/07 09:05:59;;;;;;;;;;;;;;;18.40;55.40;103553.87;2267147;78;51646;-73
2023/02/07 09:09:00;;;;;;;;;;;;;;;18.44;55.31;103553.15;2252135;78;50998;-73
2023/02/07 09:12:02;;;;;;;;;;;;;;;18.45;55.21;103549.52;2262698;78;51505;-72
2023/02/07 09:15:04;;;;;;;;;;;;;;;18.43;55.25;103552.30;2281284;78;51549;-72
2023/02/07 09:18:06;;;;;;;;;;;;;;;18.42;55.25;103546.58;2281261;78;51545;-73
2023/02/07 09:21:08;;;;;;;;;;;;;;;18.34;55.32;103539.58;2268901;78;51157;-73
2023/02/07 09:24:09;;;;;;;;;;;;;;;18.27;55.44;103534.28;2267737;78;50128;-74
2023/02/07 09:27:11;;;;;;;;;;;;;;;18.24;55.49;103547.42;2281472;78;50323;-74
2023/02/07 09:30:12;;;;;;;;;;;;;;;18.20;55.52;103539.70;2281519;78;50752;-74
2023/02/07 09:33:14;;;;;;;;;;;;;;;18.18;55.57;103557.71;2268350;78;51087;-74
2023/02/07 09:36:17;;;;;;;;;;;;;;;18.16;55.63;103569.02;2281506;78;50410;-74
2023/02/07 09:39:18;;;;;;;;;;;;;;;18.21;55.52;103567.75;2266626;77;50773;-74
2023/02/07 09:42:21;;;;;;;;;;;;;;;18.24;55.50;103566.67;2302488;77;50422;-74
2023/02/07 09:45:25;;;;;;;;;;;;;;;18.26;55.45;103560.23;2283602;77;51166;-74
2023/02/07 09:48:37;;;;;;;;;;;;;;;18.34;55.25;103569.53;2304872;77;51450;-74
2023/02/07 09:51:39;;;;;;;;;;;;;;;18.35;55.22;103569.43;2305771;77;50309;-73
2023/02/07 09:54:41;;;;;;;;;;;;;;;18.40;55.06;103564.59;2305779;77;51434;-73
2023/02/07 09:57:44;;;;;;;;;;;;;;;18.42;55.04;103563.13;2283659;77;52315;-73
2023/02/07 10:00:47;;;;;;;;;;;;;;;18.47;54.90;103567.21;2304911;77;51503;-74
2023/02/07 10:04:06;;;;;;;;;;;;;;;18.49;54.80;103571.95;2305488;77;51497;-73
2023/02/07 10:07:09;;;;;;;;;;;;;;;18.46;54.81;103574.86;2305621;77;50753;-73
2023/02/07 10:10:22;;;;;;;;;;;;;;;18.40;54.86;103582.02;2265489;78;51244;-73
2023/02/07 10:13:28;;;;;;;;;;;;;;;18.37;54.95;103588.06;2258829;78;50284;-73
2023/02/07 10:16:48;;;;;;;;;;;;;;;18.32;55.00;103600.48;2267537;78;51452;-74
2023/02/07 10:19:54;;;;;;;;;;;;;;;18.27;55.04;103602.63;2267514;78;50660;-74
2023/02/07 10:22:57;;;;;;;;;;;;;;;18.20;55.15;103595.98;2238686;78;51293;-73
2023/02/07 10:26:17;;;;;;;;;;;;;;;18.22;55.09;103600.27;2267484;77;50313;-73
2023/02/07 10:29:35;;;;;;;;;;;;;;;18.18;55.18;103595.23;2267504;78;51481;-73
2023/02/07 10:32:42;;;;;;;;;;;;;;;18.21;55.12;103590.53;2267239;77;50307;-73
2023/02/07 10:35:44;;;;;;;;;;;;;;;18.26;55.03;103587.50;2267771;77;22276;-72
2023/02/07 10:38:47;;;;;;;;;;;;;;;18.30;54.92;103580.97;2273153;77;51568;-72
2023/02/07 10:41:50;;;;;;;;;;;;;;;18.33;54.86;103578.05;2275606;77;50386;-72
2023/02/07 10:44:53;;;;;;;;;;;;;;;18.36;54.81;103579.17;2246665;78;50682;-72
2023/02/07 10:47:56;;;;;;;;;;;;;;;18.42;54.64;103588.14;2246225;78;50972;-72
2023/02/07 10:50:59;;;;;;;;;;;;;;;18.42;54.67;103591.27;2246656;78;50679;-73
2023/02/07 10:54:06;;;;;;;;;;;;;;;18.47;54.57;103587.32;2267155;78;50386;-73
2023/02/07 10:57:08;;;;;;;;;;;;;;;18.46;54.47;103590.95;2266129;76;22274;-73
2023/02/07 11:00:11;;;;;;;;;;;;;;;18.44;54.47;103583.49;2245992;78;51116;-73
2023/02/07 11:03:13;;;;;;;;;;;;;;;18.41;54.50;103585.06;2266423;76;51432;-72
2023/02/07 11:06:16;;;;;;;;;;;;;;;18.38;54.53;103577.24;2267387;78;50704;-73
2023/02/07 11:09:22;;;;;;;;;;;;;;;18.33;54.59;103574.52;2280073;77;50235;-72
2023/02/07 11:12:28;;;;;;;;;;;;;;;18.28;54.70;103581.55;2245936;78;49700;-73
2023/02/07 11:15:35;;;;;;;;;;;;;;;18.24;54.80;103582.75;2246397;78;22250;-74
2023/02/07 11:18:39;;;;;;;;;;;;;;;18.22;54.77;103584.68;2267169;78;51543;-74
2023/02/07 11:21:42;;;;;;;;;;;;;;;18.24;54.78;103574.72;2267464;78;51586;-72
2023/02/07 11:24:43;;;;;;;;;;;;;;;18.21;54.82;103574.45;2246025;78;51280;-73
2023/02/07 11:27:45;;;;;;;;;;;;;;;18.27;54.74;103583.38;2267452;78;50648;-74
2023/02/07 11:30:46;;;;;;;;;;;;;;;18.31;54.63;103574.63;2246359;78;50641;-72
2023/02/07 11:33:48;;;;;;;;;;;;;;;18.34;54.54;103570.86;2267195;78;50206;-73
2023/02/07 11:36:50;;;;;;;;;;;;;;;18.38;54.45;103571.87;2246265;78;51204;-73
2023/02/07 11:39:52;;;;;;;;;;;;;;;18.43;54.38;103579.11;2262991;78;50314;-74
2023/02/07 11:42:58;;;;;;;;;;;;;;;18.46;54.29;103578.88;2267180;78;50782;-73
2023/02/07 11:46:02;;;;;;;;;;;;;;;18.55;54.07;103571.13;2267384;78;50283;-73
2023/02/07 11:49:04;;;;;;;;;;;;;;;18.56;54.02;103562.99;2246231;78;50528;-74
2023/02/07 11:52:06;;;;;;;;;;;;;;;18.55;54.00;103553.25;2267187;78;50801;-74
2023/02/07 11:55:08;;;;;;;;;;;;;;;18.49;54.01;103558.55;2267390;78;50705;-73
2023/02/07 11:58:15;;;;;;;;;;;;;;;18.44;54.12;103549.98;2268131;77;50759;-74
2023/02/07 12:01:17;;;;;;;;;;;;;;;18.38;54.22;103545.56;2245783;78;51251;-74
2023/02/07 12:04:19;;;;;;;;;;;;;;;18.34;54.25;103546.28;2267044;78;50301;-74
2023/02/07 12:07:24;;;;;;;;;;;;;;;18.30;54.35;103547.45;2268340;77;51501;-74
2023/02/07 12:10:27;;;;;;;;;;;;;;;18.25;54.42;103537.55;2280239;77;22272;-72
2023/02/07 12:13:36;;;;;;;;;;;;;;;18.24;54.46;103541.21;2245276;78;52535;-73
2023/02/07 12:16:39;;;;;;;;;;;;;;;18.25;54.44;103539.74;2267375;78;51542;-72
2023/02/07 12:19:55;;;;;;;;;;;;;;;18.31;54.35;103545.14;2266461;76;51678;-72
2023/02/07 12:22:58;;;;;;;;;;;;;;;18.33;54.25;103547.23;2267097;78;51534;-73
2023/02/07 12:26:04;;;;;;;;;;;;;;;18.38;54.14;103545.08;2246126;78;51422;-72
2023/02/07 12:29:07;;;;;;;;;;;;;;;18.44;54.02;103525.00;2267357;78;50362;-74
2023/02/07 12:32:15;;;;;;;;;;;;;;;18.48;53.91;103527.84;2266850;78;50217;-72
2023/02/07 12:35:34;;;;;;;;;;;;;;;18.49;53.83;103519.66;2267462;78;51550;-73
2023/02/07 12:38:40;;;;;;;;;;;;;;;18.56;53.72;103524.60;2249888;77;51053;-72
2023/02/07 12:41:44;;;;;;;;;;;;;;;18.59;53.58;103515.83;2287796;77;51429;-73
2023/02/07 12:44:51;;;;;;;;;;;;;;;18.57;53.59;103519.59;2304906;77;50323;-73
2023/02/07 12:47:57;;;;;;;;;;;;;;;18.50;53.69;103515.19;2305800;77;50306;-72
2023/02/07 12:51:00;;;;;;;;;;;;;;;18.44;53.80;103502.21;2283716;77;51021;-72
2023/02/07 12:54:07;;;;;;;;;;;;;;;18.42;53.83;103494.30;2305591;77;51481;-72
2023/02/07 12:57:13;;;;;;;;;;;;;;;18.36;53.94;103488.52;2305872;77;50686;-72
2023/02/07 13:00:19;;;;;;;;;;;;;;;18.32;54.02;103479.86;2305830;77;50708;-72
2023/02/07 13:03:25;;;;;;;;;;;;;;;18.31;54.03;103483.98;2283570;77;51798;-73
2023/02/07 13:06:36;;;;;;;;;;;;;;;18.28;54.11;103483.72;2305914;77;50779;-74
2023/02/07 13:09:42;;;;;;;;;;;;;;;18.30;54.10;103485.80;2286432;77;51635;-73
2023/02/07 13:12:48;;;;;;;;;;;;;;;18.34;54.05;103485.09;2305720;77;51514;-73
2023/02/07 13:16:03;;;;;;;;;;;;;;;18.36;53.98;103484.01;2295120;77;50760;-73
2023/02/07 13:19:22;;;;;;;;;;;;;;;18.45;53.75;103486.52;2278087;77;50791;-72
2023/02/07 13:22:41;;;;;;;;;;;;;;;18.44;53.77;103478.93;2235162;79;50497;-73
2023/02/07 13:25:43;;;;;;;;;;;;;;;18.47;53.67;103480.08;2278378;78;50302;-73
2023/02/07 13:28:55;;;;;;;;;;;;;;;18.49;53.63;103489.32;2238589;78;49899;-73
2023/02/07 13:32:02;;;;;;;;;;;;;;;18.53;53.52;103489.97;2214679;78;50955;-73
2023/02/07 13:35:20;;;;;;;;;;;;;;;18.54;53.52;103483.14;2258637;78;51554;-74
2023/02/07 13:38:29;;;;;;;;;;;;;;;18.57;53.43;103492.78;2259671;78;51573;-73
2023/02/07 13:41:32;;;;;;;;;;;;;;;18.56;53.39;103481.69;2258902;77;50490;-74
2023/02/07 13:44:42;;;;;;;;;;;;;;;18.50;53.46;103473.13;2238427;78;49659;-74
2023/02/07 13:47:45;;;;;;;;;;;;;;;18.45;53.54;103473.96;2303780;77;50426;-74
2023/02/07 13:50:54;;;;;;;;;;;;;;;18.41;53.63;103465.76;2299603;76;51510;-73
2023/02/07 13:54:07;;;;;;;;;;;;;;;18.37;53.69;103464.75;2299540;77;51472;-74
2023/02/07 14:00:30;;;;;;;;;;;;;;;18.29;53.82;103464.00;2280206;77;22588;-74
2023/02/07 14:03:33;;;;;;;;;;;;;;;18.30;53.90;103463.02;2287712;76;50903;-74
2023/02/07 14:06:35;;;;;;;;;;;;;;;18.32;53.86;103455.73;2287864;78;50738;-73
2023/02/07 14:09:42;;;;;;;;;;;;;;;18.35;53.77;103455.50;2267149;78;51043;-73
2023/02/07 14:12:43;;;;;;;;;;;;;;;18.42;53.60;103450.52;2259359;78;51509;-74
2023/02/07 14:15:47;;;;;;;;;;;;;;;18.46;53.51;103453.36;2267682;77;52383;-72
2023/02/07 14:18:49;;;;;;;;;;;;;;;18.49;53.44;103449.95;2287706;77;51450;-73
2023/02/07 14:21:53;;;;;;;;;;;;;;;18.50;53.41;103449.49;2248763;78;49565;-74
2023/02/07 14:25:05;;;;;;;;;;;;;;;18.57;53.25;103452.06;2269619;78;50412;-73
2023/02/07 14:28:09;;;;;;;;;;;;;;;18.57;53.22;103448.05;2278379;77;50689;-72
2023/02/07 14:31:13;;;;;;;;;;;;;;;18.61;53.14;103444.66;2259660;78;51611;-73
2023/02/07 14:34:14;;;;;;;;;;;;;;;18.56;53.19;103458.91;2259696;78;24899;-74
2023/02/07 14:37:22;;;;;;;;;;;;;;;18.50;53.24;103455.70;2238746;78;52635;-73
2023/02/07 14:40:42;;;;;;;;;;;;;;;18.48;53.26;103460.32;2239293;78;22627;-73
2023/02/07 14:43:41;;;;;;;;;;;;;;;18.41;53.45;103457.72;2256983;77;22405;-73
2023/02/07 14:46:44;;;;;;;;;;;;;;;18.34;53.53;103459.16;2243470;78;51049;-73
2023/02/07 14:49:46;;;;;;;;;;;;;;;18.32;53.58;103449.52;2259243;78;51735;-74
2023/02/07 14:52:49;;;;;;;;;;;;;;;18.28;53.63;103447.04;2259311;78;51684;-73
2023/02/07 14:55:58;;;;;;;;;;;;;;;18.26;53.68;103447.66;2259587;78;51669;-73
2023/02/07 14:58:56;;;;;;;;;;;;;;;18.30;53.67;103450.96;2258129;78;21987;-72
2023/02/07 15:02:00;;;;;;;;;;;;;;;18.31;53.71;103441.09;2259520;78;50783;-72
2023/02/07 15:05:16;;;;;;;;;;;;;;;18.36;53.57;103445.62;2258879;78;51550;-72
2023/02/07 15:08:18;;;;;;;;;;;;;;;18.39;53.55;103431.98;2259330;78;51441;-73
2023/02/07 15:11:20;;;;;;;;;;;;;;;18.44;53.42;103435.19;2238589;78;51770;-72
2023/02/07 15:14:23;;;;;;;;;;;;;;;18.45;53.36;103441.78;2259353;78;50758;-73
2023/02/07 15:17:25;;;;;;;;;;;;;;;18.48;53.28;103432.17;2274038;77;50737;-73
2023/02/07 15:20:28;;;;;;;;;;;;;;;18.50;53.24;103435.59;2260880;77;50408;-73
2023/02/07 15:23:30;;;;;;;;;;;;;;;18.53;53.16;103430.98;2277225;77;50346;-73
2023/02/07 15:26:32;;;;;;;;;;;;;;;18.54;53.13;103436.70;2238312;78;51253;-73
2023/02/07 15:29:35;;;;;;;;;;;;;;;18.57;53.06;103431.95;2259560;78;51528;-73
2023/02/07 15:32:45;;;;;;;;;;;;;;;18.56;53.01;103431.59;2259301;78;51553;-72
2023/02/07 15:35:46;;;;;;;;;;;;;;;18.56;52.96;103435.62;2259856;78;24375;-73
2023/02/07 15:38:48;;;;;;;;;;;;;;;18.46;53.09;103438.12;2259523;78;50419;-73
2023/02/07 15:41:50;;;;;;;;;;;;;;;18.42;53.20;103437.12;2259175;78;50722;-74
2023/02/07 15:44:55;;;;;;;;;;;;;;;18.35;53.28;103435.39;2259346;77;50739;-73